sensor_id;sensor_type;location;lat;lon;timestamp;pressure;altitude;pressure_sealevel;temperature;humidity
79463;BME280;68931;47.286;18.756;2023-09-18T00:00:21;100884.09;;;15.98;90.33
79463;BME280;68931;47.286;18.756;2023-09-18T00:00:53;100877.69;;;15.89;90.24
79463;BME280;68931;47.286;18.756;2023-09-18T00:01:26;100874.88;;;15.79;90.47
79463;BME280;68931;47.286;18.756;2023-09-18T00:01:58;100877.06;;;15.86;90.22
79463;BME280;68931;47.286;18.756;2023-09-18T00:02:30;100877.34;;;15.94;90.06
79463;BME280;68931;47.286;18.756;2023-09-18T00:03:03;100880.94;;;15.93;89.91
79463;BME280;68931;47.286;18.756;2023-09-18T00:03:35;100876.50;;;15.93;89.98
79463;BME280;68931;47.286;18.756;2023-09-18T00:04:07;100877.44;;;15.92;90.19
79463;BME280;68931;47.286;18.756;2023-09-18T00:04:39;100865.03;;;15.82;90.32
79463;BME280;68931;47.286;18.756;2023-09-18T00:05:11;100874.19;;;15.89;90.27
79463;BME280;68931;47.286;18.756;2023-09-18T00:05:47;100873.00;;;15.93;90.29
79463;BME280;68931;47.286;18.756;2023-09-18T00:06:19;100876.50;;;15.93;90.00
79463;BME280;68931;47.286;18.756;2023-09-18T00:06:57;100878.06;;;15.96;89.65
79463;BME280;68931;47.286;18.756;2023-09-18T00:07:29;100873.72;;;15.95;89.72
79463;BME280;68931;47.286;18.756;2023-09-18T00:08:01;100872.03;;;15.94;89.48
79463;BME280;68931;47.286;18.756;2023-09-18T00:08:34;100871.34;;;15.92;89.56
79463;BME280;68931;47.286;18.756;2023-09-18T00:09:06;100878.81;;;15.98;89.55
79463;BME280;68931;47.286;18.756;2023-09-18T00:09:43;100879.03;;;15.95;89.48
79463;BME280;68931;47.286;18.756;2023-09-18T00:10:15;100875.53;;;15.94;89.56
79463;BME280;68931;47.286;18.756;2023-09-18T00:10:53;100877.34;;;15.94;89.89
79463;BME280;68931;47.286;18.756;2023-09-18T00:11:26;100875.63;;;15.93;90.01
79463;BME280;68931;47.286;18.756;2023-09-18T00:11:59;100876.00;;;15.88;89.50
79463;BME280;68931;47.286;18.756;2023-09-18T00:12:31;100833.41;;;15.67;89.86
79463;BME280;68931;47.286;18.756;2023-09-18T00:13:03;100869.75;;;15.89;89.89
79463;BME280;68931;47.286;18.756;2023-09-18T00:13:35;100874.94;;;15.91;89.89
79463;BME280;68931;47.286;18.756;2023-09-18T00:14:09;100878.28;;;15.93;89.87
79463;BME280;68931;47.286;18.756;2023-09-18T00:14:41;100859.72;;;15.82;89.92
79463;BME280;68931;47.286;18.756;2023-09-18T00:15:15;100878.28;;;15.93;89.85
79463;BME280;68931;47.286;18.756;2023-09-18T00:15:47;100831.72;;;15.66;89.80
79463;BME280;68931;47.286;18.756;2023-09-18T00:16:20;100874.69;;;15.94;90.00
79463;BME280;68931;47.286;18.756;2023-09-18T00:16:53;100872.88;;;15.94;89.66
79463;BME280;68931;47.286;18.756;2023-09-18T00:17:29;100862.66;;;15.90;89.54
79463;BME280;68931;47.286;18.756;2023-09-18T00:18:01;100870.59;;;15.90;89.73
79463;BME280;68931;47.286;18.756;2023-09-18T00:18:34;100871.66;;;15.87;89.74
79463;BME280;68931;47.286;18.756;2023-09-18T00:19:06;100862.47;;;15.80;89.69
79463;BME280;68931;47.286;18.756;2023-09-18T00:19:43;100878.00;;;15.85;89.94
79463;BME280;68931;47.286;18.756;2023-09-18T00:20:15;100870.53;;;15.78;89.99
79463;BME280;68931;47.286;18.756;2023-09-18T00:20:51;100878.25;;;15.82;90.11
79463;BME280;68931;47.286;18.756;2023-09-18T00:21:24;100855.81;;;15.74;90.20
79463;BME280;68931;47.286;18.756;2023-09-18T00:21:57;100866.81;;;15.81;89.86
79463;BME280;68931;47.286;18.756;2023-09-18T00:22:33;100869.38;;;15.83;90.26
79463;BME280;68931;47.286;18.756;2023-09-18T00:23:05;100858.34;;;15.76;90.07
79463;BME280;68931;47.286;18.756;2023-09-18T00:23:37;100869.22;;;15.84;89.98
79463;BME280;68931;47.286;18.756;2023-09-18T00:24:09;100872.72;;;15.85;89.93
79463;BME280;68931;47.286;18.756;2023-09-18T00:24:43;100858.47;;;15.74;90.05
79463;BME280;68931;47.286;18.756;2023-09-18T00:25:15;100872.00;;;15.83;90.08
79463;BME280;68931;47.286;18.756;2023-09-18T00:25:47;100866.81;;;15.81;90.21
79463;BME280;68931;47.286;18.756;2023-09-18T00:26:19;100840.13;;;15.60;90.12
79463;BME280;68931;47.286;18.756;2023-09-18T00:26:51;100874.03;;;15.79;90.08
79463;BME280;68931;47.286;18.756;2023-09-18T00:27:26;100874.88;;;15.79;90.00
79463;BME280;68931;47.286;18.756;2023-09-18T00:27:58;100868.94;;;15.76;89.97
79463;BME280;68931;47.286;18.756;2023-09-18T00:28:29;100869.06;;;15.74;90.08
79463;BME280;68931;47.286;18.756;2023-09-18T00:29:02;100871.94;;;15.71;90.02
79463;BME280;68931;47.286;18.756;2023-09-18T00:29:34;100872.69;;;15.73;89.82
79463;BME280;68931;47.286;18.756;2023-09-18T00:30:06;100883.00;;;15.76;90.03
79463;BME280;68931;47.286;18.756;2023-09-18T00:30:42;100876.97;;;15.74;89.96
79463;BME280;68931;47.286;18.756;2023-09-18T00:31:19;100876.97;;;15.74;90.06
79463;BME280;68931;47.286;18.756;2023-09-18T00:31:51;100870.97;;;15.72;90.01
79463;BME280;68931;47.286;18.756;2023-09-18T00:32:23;100872.78;;;15.72;90.17
79463;BME280;68931;47.286;18.756;2023-09-18T00:32:58;100870.97;;;15.72;90.06
79463;BME280;68931;47.286;18.756;2023-09-18T00:33:31;100859.88;;;15.67;90.04
79463;BME280;68931;47.286;18.756;2023-09-18T00:34:03;100871.69;;;15.74;89.81
79463;BME280;68931;47.286;18.756;2023-09-18T00:34:37;100865.69;;;15.72;89.65
79463;BME280;68931;47.286;18.756;2023-09-18T00:35:09;100876.66;;;15.79;89.86
79463;BME280;68931;47.286;18.756;2023-09-18T00:35:46;100856.28;;;15.68;89.41
79463;BME280;68931;47.286;18.756;2023-09-18T00:36:18;100874.22;;;15.76;89.46
79463;BME280;68931;47.286;18.756;2023-09-18T00:36:50;100872.22;;;15.79;88.83
79463;BME280;68931;47.286;18.756;2023-09-18T00:37:22;100877.50;;;15.79;88.88
79463;BME280;68931;47.286;18.756;2023-09-18T00:37:54;100871.47;;;15.77;88.87
79463;BME280;68931;47.286;18.756;2023-09-18T00:38:28;100872.69;;;15.73;88.89
79463;BME280;68931;47.286;18.756;2023-09-18T00:39:03;100874.34;;;15.74;88.57
79463;BME280;68931;47.286;18.756;2023-09-18T00:39:35;100874.47;;;15.73;89.35
79463;BME280;68931;47.286;18.756;2023-09-18T00:40:08;100881.56;;;15.72;89.38
79463;BME280;68931;47.286;18.756;2023-09-18T00:40:39;100872.88;;;15.70;88.96
79463;BME280;68931;47.286;18.756;2023-09-18T00:41:11;100866.75;;;15.70;89.24
79463;BME280;68931;47.286;18.756;2023-09-18T00:41:46;100849.84;;;15.60;89.46
79463;BME280;68931;47.286;18.756;2023-09-18T00:42:21;100863.47;;;15.66;89.85
79463;BME280;68931;47.286;18.756;2023-09-18T00:42:54;100861.06;;;15.63;89.48
79463;BME280;68931;47.286;18.756;2023-09-18T00:43:26;100876.97;;;15.74;89.76
79463;BME280;68931;47.286;18.756;2023-09-18T00:43:58;100874.34;;;15.74;89.56
79463;BME280;68931;47.286;18.756;2023-09-18T00:44:30;100869.06;;;15.74;89.44
79463;BME280;68931;47.286;18.756;2023-09-18T00:45:03;100870.13;;;15.72;89.70
79463;BME280;68931;47.286;18.756;2023-09-18T00:45:39;100869.19;;;15.73;89.67
79463;BME280;68931;47.286;18.756;2023-09-18T00:46:12;100853.13;;;15.63;89.57
79463;BME280;68931;47.286;18.756;2023-09-18T00:46:46;100866.66;;;15.71;89.56
79463;BME280;68931;47.286;18.756;2023-09-18T00:47:18;100869.06;;;15.74;89.58
79463;BME280;68931;47.286;18.756;2023-09-18T00:47:51;100869.28;;;15.71;89.29
79463;BME280;68931;47.286;18.756;2023-09-18T00:48:23;100852.28;;;15.63;89.49
79463;BME280;68931;47.286;18.756;2023-09-18T00:48:55;100872.88;;;15.70;89.28
79463;BME280;68931;47.286;18.756;2023-09-18T00:49:28;100863.47;;;15.66;89.75
79463;BME280;68931;47.286;18.756;2023-09-18T00:50:00;100861.19;;;15.62;89.49
79463;BME280;68931;47.286;18.756;2023-09-18T00:50:32;100857.78;;;15.60;89.69
79463;BME280;68931;47.286;18.756;2023-09-18T00:51:04;100859.50;;;15.61;89.62
79463;BME280;68931;47.286;18.756;2023-09-18T00:51:36;100849.97;;;15.58;89.58
79463;BME280;68931;47.286;18.756;2023-09-18T00:52:09;100855.88;;;15.62;89.68
79463;BME280;68931;47.286;18.756;2023-09-18T00:52:42;100866.25;;;15.65;89.52
79463;BME280;68931;47.286;18.756;2023-09-18T00:53:18;100866.47;;;15.62;89.70
79463;BME280;68931;47.286;18.756;2023-09-18T00:53:52;100848.59;;;15.53;89.56
79463;BME280;68931;47.286;18.756;2023-09-18T00:54:26;100866.47;;;15.62;89.86
79463;BME280;68931;47.286;18.756;2023-09-18T00:55:00;100867.31;;;15.62;90.08
79463;BME280;68931;47.286;18.756;2023-09-18T00:55:32;100861.19;;;15.62;89.69
79463;BME280;68931;47.286;18.756;2023-09-18T00:56:05;100856.34;;;15.56;89.98
79463;BME280;68931;47.286;18.756;2023-09-18T00:56:37;100857.78;;;15.60;89.72
79463;BME280;68931;47.286;18.756;2023-09-18T00:57:09;100852.00;;;15.55;89.64
79463;BME280;68931;47.286;18.756;2023-09-18T00:57:42;100852.97;;;15.54;89.60
79463;BME280;68931;47.286;18.756;2023-09-18T00:58:15;100865.00;;;15.58;89.51
79463;BME280;68931;47.286;18.756;2023-09-18T00:58:47;100859.59;;;15.59;89.84
79463;BME280;68931;47.286;18.756;2023-09-18T00:59:20;100851.91;;;15.56;89.66
79463;BME280;68931;47.286;18.756;2023-09-18T00:59:52;100838.47;;;15.47;89.84
79463;BME280;68931;47.286;18.756;2023-09-18T01:00:25;100854.31;;;15.59;90.06
79463;BME280;68931;47.286;18.756;2023-09-18T01:00:58;100846.78;;;15.53;89.71
79463;BME280;68931;47.286;18.756;2023-09-18T01:01:30;100834.22;;;15.44;89.86
79463;BME280;68931;47.286;18.756;2023-09-18T01:02:03;100852.84;;;15.55;90.18
79463;BME280;68931;47.286;18.756;2023-09-18T01:02:35;100853.03;;;15.52;90.00
79463;BME280;68931;47.286;18.756;2023-09-18T01:03:07;100847.94;;;15.49;90.46
79463;BME280;68931;47.286;18.756;2023-09-18T01:03:39;100853.97;;;15.51;90.10
79463;BME280;68931;47.286;18.756;2023-09-18T01:04:12;100848.91;;;15.48;90.12
79463;BME280;68931;47.286;18.756;2023-09-18T01:04:45;100856.63;;;15.51;90.18
79463;BME280;68931;47.286;18.756;2023-09-18T01:05:17;100853.38;;;15.48;90.39
79463;BME280;68931;47.286;18.756;2023-09-18T01:05:49;100855.88;;;15.49;90.65
79463;BME280;68931;47.286;18.756;2023-09-18T01:06:24;100852.53;;;15.47;90.69
79463;BME280;68931;47.286;18.756;2023-09-18T01:06:56;100855.19;;;15.47;90.58
79463;BME280;68931;47.286;18.756;2023-09-18T01:07:30;100851.53;;;15.48;90.53
79463;BME280;68931;47.286;18.756;2023-09-18T01:08:02;100848.09;;;15.48;90.75
79463;BME280;68931;47.286;18.756;2023-09-18T01:08:36;100828.88;;;15.33;90.48
79463;BME280;68931;47.286;18.756;2023-09-18T01:09:08;100848.91;;;15.48;90.41
79463;BME280;68931;47.286;18.756;2023-09-18T01:09:44;100833.19;;;15.34;90.40
79463;BME280;68931;47.286;18.756;2023-09-18T01:10:16;100854.19;;;15.48;90.38
79463;BME280;68931;47.286;18.756;2023-09-18T01:11:19;100857.81;;;15.47;90.57
79463;BME280;68931;47.286;18.756;2023-09-18T01:13:04;100850.41;;;15.39;90.58
79463;BME280;68931;47.286;18.756;2023-09-18T01:14:01;100851.06;;;15.43;90.35
79463;BME280;68931;47.286;18.756;2023-09-18T01:14:42;100856.97;;;15.47;90.20
79463;BME280;68931;47.286;18.756;2023-09-18T01:15:33;100857.06;;;15.45;90.01
79463;BME280;68931;47.286;18.756;2023-09-18T01:16:14;100857.81;;;15.47;90.30
79463;BME280;68931;47.286;18.756;2023-09-18T01:17:00;100849.34;;;15.42;90.51
79463;BME280;68931;47.286;18.756;2023-09-18T01:17:37;100850.09;;;15.44;90.23
79463;BME280;68931;47.286;18.756;2023-09-18T01:18:12;100845.13;;;15.39;90.47
79463;BME280;68931;47.286;18.756;2023-09-18T01:18:49;100852.00;;;15.42;90.40
79463;BME280;68931;47.286;18.756;2023-09-18T01:19:48;100858.88;;;15.44;89.95
79463;BME280;68931;47.286;18.756;2023-09-18T01:20:20;100846.22;;;15.37;90.23
79463;BME280;68931;47.286;18.756;2023-09-18T01:20:55;100852.84;;;15.42;90.04
79463;BME280;68931;47.286;18.756;2023-09-18T01:21:27;100845.47;;;15.35;90.28
79463;BME280;68931;47.286;18.756;2023-09-18T01:21:59;100847.06;;;15.37;89.74
79463;BME280;68931;47.286;18.756;2023-09-18T01:22:31;100834.16;;;15.33;90.06
79463;BME280;68931;47.286;18.756;2023-09-18T01:23:06;100846.59;;;15.43;89.90
79463;BME280;68931;47.286;18.756;2023-09-18T01:23:39;100858.03;;;15.44;89.85
79463;BME280;68931;47.286;18.756;2023-09-18T01:24:11;100844.72;;;15.33;89.80
79463;BME280;68931;47.286;18.756;2023-09-18T01:24:45;100846.03;;;15.27;89.61
79463;BME280;68931;47.286;18.756;2023-09-18T01:25:17;100840.72;;;15.27;89.43
79463;BME280;68931;47.286;18.756;2023-09-18T01:25:49;100838.00;;;15.29;89.19
79463;BME280;68931;47.286;18.756;2023-09-18T01:26:21;100845.25;;;15.38;89.77
79463;BME280;68931;47.286;18.756;2023-09-18T01:26:53;100846.72;;;15.42;89.60
79463;BME280;68931;47.286;18.756;2023-09-18T01:27:25;100845.25;;;15.38;89.88
79463;BME280;68931;47.286;18.756;2023-09-18T01:27:57;100850.84;;;15.33;90.14
79463;BME280;68931;47.286;18.756;2023-09-18T01:28:29;100849.41;;;15.29;89.76
79463;BME280;68931;47.286;18.756;2023-09-18T01:29:01;100852.91;;;15.30;89.94
79463;BME280;68931;47.286;18.756;2023-09-18T01:29:34;100837.44;;;15.24;89.77
79463;BME280;68931;47.286;18.756;2023-09-18T01:30:07;100840.50;;;15.30;89.76
79463;BME280;68931;47.286;18.756;2023-09-18T01:30:39;100841.34;;;15.31;90.04
79463;BME280;68931;47.286;18.756;2023-09-18T01:31:11;100849.69;;;15.37;89.93
79463;BME280;68931;47.286;18.756;2023-09-18T01:31:43;100850.47;;;15.27;90.26
79463;BME280;68931;47.286;18.756;2023-09-18T01:32:16;100844.88;;;15.19;89.64
79463;BME280;68931;47.286;18.756;2023-09-18T01:32:49;100839.34;;;15.22;89.28
79463;BME280;68931;47.286;18.756;2023-09-18T01:33:24;100834.06;;;15.22;89.53
79463;BME280;68931;47.286;18.756;2023-09-18T01:34:00;100854.47;;;15.32;89.94
79463;BME280;68931;47.286;18.756;2023-09-18T01:34:35;100853.84;;;15.29;89.64
79463;BME280;68931;47.286;18.756;2023-09-18T01:35:10;100849.09;;;15.21;89.94
79463;BME280;68931;47.286;18.756;2023-09-18T01:35:45;100858.91;;;15.32;90.07
79463;BME280;68931;47.286;18.756;2023-09-18T01:36:19;100851.72;;;15.34;90.03
79463;BME280;68931;47.286;18.756;2023-09-18T01:36:52;100852.44;;;15.36;90.11
79463;BME280;68931;47.286;18.756;2023-09-18T01:37:27;100856.53;;;15.40;90.29
79463;BME280;68931;47.286;18.756;2023-09-18T01:38:01;100850.66;;;15.36;90.30
79463;BME280;68931;47.286;18.756;2023-09-18T01:38:36;100849.50;;;15.28;90.29
79463;BME280;68931;47.286;18.756;2023-09-18T01:39:12;100820.44;;;15.15;90.47
79463;BME280;68931;47.286;18.756;2023-09-18T01:39:46;100838.19;;;15.26;90.50
79463;BME280;68931;47.286;18.756;2023-09-18T01:40:19;100844.72;;;15.33;90.49
79463;BME280;68931;47.286;18.756;2023-09-18T01:40:53;100845.47;;;15.35;90.15
79463;BME280;68931;47.286;18.756;2023-09-18T01:41:28;100852.25;;;15.39;90.49
79463;BME280;68931;47.286;18.756;2023-09-18T01:42:06;100854.63;;;15.42;90.28
79463;BME280;68931;47.286;18.756;2023-09-18T01:42:39;100848.97;;;15.35;90.11
79463;BME280;68931;47.286;18.756;2023-09-18T01:43:11;100860.16;;;15.39;90.03
79463;BME280;68931;47.286;18.756;2023-09-18T01:43:46;100862.47;;;15.43;90.05
79463;BME280;68931;47.286;18.756;2023-09-18T01:44:18;100850.31;;;15.41;89.79
79463;BME280;68931;47.286;18.756;2023-09-18T01:44:54;100848.22;;;15.33;89.64
79463;BME280;68931;47.286;18.756;2023-09-18T01:45:26;100844.53;;;15.36;89.86
79463;BME280;68931;47.286;18.756;2023-09-18T01:45:58;100846.22;;;15.37;89.70
79463;BME280;68931;47.286;18.756;2023-09-18T01:46:32;100858.03;;;15.44;89.43
79463;BME280;68931;47.286;18.756;2023-09-18T01:47:10;100849.59;;;15.39;89.78
79463;BME280;68931;47.286;18.756;2023-09-18T01:47:43;100853.69;;;15.43;89.48
79463;BME280;68931;47.286;18.756;2023-09-18T01:48:15;100858.03;;;15.44;89.67
79463;BME280;68931;47.286;18.756;2023-09-18T01:48:47;100857.06;;;15.45;89.82
79463;BME280;68931;47.286;18.756;2023-09-18T01:49:32;100863.31;;;15.44;89.39
79463;BME280;68931;47.286;18.756;2023-09-18T01:50:04;100860.88;;;15.41;89.91
79463;BME280;68931;47.286;18.756;2023-09-18T01:50:39;100865.31;;;15.40;90.06
79463;BME280;68931;47.286;18.756;2023-09-18T01:51:14;100857.19;;;15.31;90.28
79463;BME280;68931;47.286;18.756;2023-09-18T01:51:47;100856.25;;;15.32;90.55
79463;BME280;68931;47.286;18.756;2023-09-18T01:52:20;100847.81;;;15.27;90.12
79463;BME280;68931;47.286;18.756;2023-09-18T01:52:51;100855.41;;;15.31;90.00
79463;BME280;68931;47.286;18.756;2023-09-18T01:53:23;100859.53;;;15.35;90.21
79463;BME280;68931;47.286;18.756;2023-09-18T01:53:56;100865.47;;;15.39;90.21
79463;BME280;68931;47.286;18.756;2023-09-18T01:54:28;100850.97;;;15.32;90.09
79463;BME280;68931;47.286;18.756;2023-09-18T01:55:01;100860.78;;;15.42;90.21
79463;BME280;68931;47.286;18.756;2023-09-18T01:55:33;100858.13;;;15.42;89.91
79463;BME280;68931;47.286;18.756;2023-09-18T01:56:05;100868.50;;;15.46;89.92
79463;BME280;68931;47.286;18.756;2023-09-18T01:56:37;100864.16;;;15.44;89.77
79463;BME280;68931;47.286;18.756;2023-09-18T01:57:09;100866.91;;;15.43;90.15
79463;BME280;68931;47.286;18.756;2023-09-18T01:57:42;100843.47;;;15.38;90.17
79463;BME280;68931;47.286;18.756;2023-09-18T01:58:14;100860.88;;;15.41;89.46
79463;BME280;68931;47.286;18.756;2023-09-18T01:58:46;100847.25;;;15.34;89.38
79463;BME280;68931;47.286;18.756;2023-09-18T01:59:19;100839.22;;;15.36;89.25
79463;BME280;68931;47.286;18.756;2023-09-18T01:59:51;100870.19;;;15.47;89.43
79463;BME280;68931;47.286;18.756;2023-09-18T02:00:23;100863.09;;;15.47;89.30
79463;BME280;68931;47.286;18.756;2023-09-18T02:00:55;100857.19;;;15.43;89.43
79463;BME280;68931;47.286;18.756;2023-09-18T02:01:27;100861.53;;;15.44;88.89
79463;BME280;68931;47.286;18.756;2023-09-18T02:02:01;100851.25;;;15.40;89.23
79463;BME280;68931;47.286;18.756;2023-09-18T02:02:38;100852.34;;;15.37;89.42
79463;BME280;68931;47.286;18.756;2023-09-18T02:03:11;100823.00;;;15.17;89.22
79463;BME280;68931;47.286;18.756;2023-09-18T02:03:43;100850.84;;;15.33;89.30
79463;BME280;68931;47.286;18.756;2023-09-18T02:04:18;100860.66;;;15.44;89.74
79463;BME280;68931;47.286;18.756;2023-09-18T02:04:50;100867.03;;;15.41;89.44
79463;BME280;68931;47.286;18.756;2023-09-18T02:05:22;100823.19;;;15.14;89.54
79463;BME280;68931;47.286;18.756;2023-09-18T02:05:54;100863.22;;;15.33;90.03
79463;BME280;68931;47.286;18.756;2023-09-18T02:06:26;100853.59;;;15.32;90.03
79463;BME280;68931;47.286;18.756;2023-09-18T02:06:58;100823.19;;;15.14;90.00
79463;BME280;68931;47.286;18.756;2023-09-18T02:07:49;100857.00;;;15.34;90.00
79463;BME280;68931;47.286;18.756;2023-09-18T02:08:21;100854.56;;;15.31;90.00
79463;BME280;68931;47.286;18.756;2023-09-18T02:08:53;100867.78;;;15.31;90.21
79463;BME280;68931;47.286;18.756;2023-09-18T02:09:27;100854.50;;;15.20;90.35
79463;BME280;68931;47.286;18.756;2023-09-18T02:09:59;100858.38;;;15.27;90.56
79463;BME280;68931;47.286;18.756;2023-09-18T02:10:31;100866.31;;;15.27;90.42
79463;BME280;68931;47.286;18.756;2023-09-18T02:11:03;100862.84;;;15.26;90.57
79463;BME280;68931;47.286;18.756;2023-09-18T02:11:38;100864.28;;;15.30;90.47
79463;BME280;68931;47.286;18.756;2023-09-18T02:12:11;100865.03;;;15.32;90.04
79463;BME280;68931;47.286;18.756;2023-09-18T02:12:48;100859.53;;;15.23;90.37
79463;BME280;68931;47.286;18.756;2023-09-18T02:13:20;100857.44;;;15.28;90.49
79463;BME280;68931;47.286;18.756;2023-09-18T02:13:52;100857.53;;;15.26;90.39
79463;BME280;68931;47.286;18.756;2023-09-18T02:14:24;100862.31;;;15.21;90.59
79463;BME280;68931;47.286;18.756;2023-09-18T02:14:57;100865.47;;;15.26;90.34
79463;BME280;68931;47.286;18.756;2023-09-18T02:15:30;100860.41;;;15.23;90.15
79463;BME280;68931;47.286;18.756;2023-09-18T02:16:04;100854.25;;;15.23;90.18
79463;BME280;68931;47.286;18.756;2023-09-18T02:16:38;100862.94;;;15.25;90.09
79463;BME280;68931;47.286;18.756;2023-09-18T02:17:12;100855.22;;;15.22;90.60
79463;BME280;68931;47.286;18.756;2023-09-18T02:17:44;100845.09;;;15.16;90.46
79463;BME280;68931;47.286;18.756;2023-09-18T02:18:16;100856.19;;;15.21;90.46
79463;BME280;68931;47.286;18.756;2023-09-18T02:18:49;100870.13;;;15.23;90.60
79463;BME280;68931;47.286;18.756;2023-09-18T02:19:21;100851.31;;;15.15;90.05
79463;BME280;68931;47.286;18.756;2023-09-18T02:19:53;100844.56;;;15.11;90.58
79463;BME280;68931;47.286;18.756;2023-09-18T02:20:25;100864.13;;;15.21;90.21
79463;BME280;68931;47.286;18.756;2023-09-18T02:20:57;100858.09;;;15.19;90.23
79463;BME280;68931;47.286;18.756;2023-09-18T02:21:30;100864.00;;;15.22;90.20
79463;BME280;68931;47.286;18.756;2023-09-18T02:22:03;100865.78;;;15.22;90.23
79463;BME280;68931;47.286;18.756;2023-09-18T02:22:35;100861.47;;;15.21;90.59
79463;BME280;68931;47.286;18.756;2023-09-18T02:23:07;100855.16;;;15.11;90.56
79463;BME280;68931;47.286;18.756;2023-09-18T02:23:39;100865.06;;;15.20;90.64
79463;BME280;68931;47.286;18.756;2023-09-18T02:24:14;100863.59;;;15.16;89.89
79463;BME280;68931;47.286;18.756;2023-09-18T02:24:46;100863.59;;;15.16;90.27
79463;BME280;68931;47.286;18.756;2023-09-18T02:25:18;100850.06;;;15.07;90.25
79463;BME280;68931;47.286;18.756;2023-09-18T02:25:56;100863.59;;;15.16;90.23
79463;BME280;68931;47.286;18.756;2023-09-18T02:26:29;100852.72;;;15.07;89.80
79463;BME280;68931;47.286;18.756;2023-09-18T02:27:04;100851.00;;;15.06;90.16
79463;BME280;68931;47.286;18.756;2023-09-18T02:27:37;100867.06;;;15.16;90.35
79463;BME280;68931;47.286;18.756;2023-09-18T02:28:09;100854.59;;;15.05;89.95
79463;BME280;68931;47.286;18.756;2023-09-18T02:28:41;100868.13;;;15.14;90.09
79463;BME280;68931;47.286;18.756;2023-09-18T02:29:13;100870.78;;;15.14;89.95
79463;BME280;68931;47.286;18.756;2023-09-18T02:29:46;100866.47;;;15.13;90.19
79463;BME280;68931;47.286;18.756;2023-09-18T02:30:18;100866.47;;;15.13;89.90
79463;BME280;68931;47.286;18.756;2023-09-18T02:30:51;100863.81;;;15.13;90.36
79463;BME280;68931;47.286;18.756;2023-09-18T02:31:23;100863.59;;;15.16;89.92
79463;BME280;68931;47.286;18.756;2023-09-18T02:31:55;100867.91;;;15.17;89.93
79463;BME280;68931;47.286;18.756;2023-09-18T02:32:27;100873.94;;;15.19;90.13
79463;BME280;68931;47.286;18.756;2023-09-18T02:32:59;100863.81;;;15.13;89.75
79463;BME280;68931;47.286;18.756;2023-09-18T02:33:34;100872.34;;;15.16;90.00
79463;BME280;68931;47.286;18.756;2023-09-18T02:34:06;100869.81;;;15.15;90.10
79463;BME280;68931;47.286;18.756;2023-09-18T02:34:41;100871.50;;;15.16;90.10
79463;BME280;68931;47.286;18.756;2023-09-18T02:35:13;100863.81;;;15.13;89.99
79463;BME280;68931;47.286;18.756;2023-09-18T02:35:45;100868.13;;;15.14;90.38
79463;BME280;68931;47.286;18.756;2023-09-18T02:36:17;100864.78;;;15.12;89.83
79463;BME280;68931;47.286;18.756;2023-09-18T02:36:49;100869.31;;;15.10;89.99
79463;BME280;68931;47.286;18.756;2023-09-18T02:37:21;100855.78;;;15.01;90.00
79463;BME280;68931;47.286;18.756;2023-09-18T02:37:54;100849.66;;;15.01;90.10
79463;BME280;68931;47.286;18.756;2023-09-18T02:38:28;100866.78;;;15.08;89.99
79463;BME280;68931;47.286;18.756;2023-09-18T02:39:00;100856.84;;;14.99;90.27
79463;BME280;68931;47.286;18.756;2023-09-18T02:39:35;100869.00;;;15.01;90.56
79463;BME280;68931;47.286;18.756;2023-09-18T02:40:07;100862.88;;;15.01;90.36
79463;BME280;68931;47.286;18.756;2023-09-18T02:40:39;100865.53;;;15.01;90.24
79463;BME280;68931;47.286;18.756;2023-09-18T02:41:11;100867.53;;;14.97;90.16
79463;BME280;68931;47.286;18.756;2023-09-18T02:41:43;100867.00;;;14.92;90.73
79463;BME280;68931;47.286;18.756;2023-09-18T02:42:15;100870.59;;;14.91;91.04
79463;BME280;68931;47.286;18.756;2023-09-18T02:42:47;100863.63;;;14.90;90.96
79463;BME280;68931;47.286;18.756;2023-09-18T02:43:20;100855.03;;;14.87;90.98
79463;BME280;68931;47.286;18.756;2023-09-18T02:43:52;100872.91;;;14.96;90.83
79463;BME280;68931;47.286;18.756;2023-09-18T02:44:24;100871.84;;;14.98;90.65
79463;BME280;68931;47.286;18.756;2023-09-18T02:44:56;100870.91;;;14.99;90.37
79463;BME280;68931;47.286;18.756;2023-09-18T02:45:28;100864.88;;;14.97;90.79
79463;BME280;68931;47.286;18.756;2023-09-18T02:46:00;100872.69;;;14.99;90.38
79463;BME280;68931;47.286;18.756;2023-09-18T02:46:32;100870.06;;;14.99;90.47
79463;BME280;68931;47.286;18.756;2023-09-18T02:47:04;100863.41;;;14.93;90.35
79463;BME280;68931;47.286;18.756;2023-09-18T02:47:36;100864.13;;;14.95;90.83
79463;BME280;68931;47.286;18.756;2023-09-18T02:48:11;100860.22;;;14.88;90.44
79463;BME280;68931;47.286;18.756;2023-09-18T02:48:44;100868.91;;;14.90;90.97
79463;BME280;68931;47.286;18.756;2023-09-18T02:49:16;100867.75;;;14.94;91.07
79463;BME280;68931;47.286;18.756;2023-09-18T02:49:48;100831.72;;;14.68;90.59
79463;BME280;68931;47.286;18.756;2023-09-18T02:50:22;100869.09;;;14.87;90.89
79463;BME280;68931;47.286;18.756;2023-09-18T02:50:54;100874.94;;;14.92;90.64
79463;BME280;68931;47.286;18.756;2023-09-18T02:51:26;100877.66;;;14.91;90.96
79463;BME280;68931;47.286;18.756;2023-09-18T02:51:58;100863.81;;;14.87;90.91
79463;BME280;68931;47.286;18.756;2023-09-18T02:52:30;100869.75;;;14.91;90.45
79463;BME280;68931;47.286;18.756;2023-09-18T02:53:07;100870.50;;;14.93;90.41
79463;BME280;68931;47.286;18.756;2023-09-18T02:53:40;100877.34;;;14.95;90.88
79463;BME280;68931;47.286;18.756;2023-09-18T02:54:12;100861.81;;;14.91;90.70